sensor_id;sensor_type;location;lat;lon;timestamp;P1;durP1;ratioP1;P2;durP2;ratioP2
23266;SDS011;11802;53.160;8.214;2023-01-23T00:01:09;8.47;;;4.40;;
23266;SDS011;11802;53.160;8.214;2023-01-23T00:03:37;9.13;;;4.43;;
23266;SDS011;11802;53.160;8.214;2023-01-23T00:06:04;8.97;;;5.27;;
23266;SDS011;11802;53.160;8.214;2023-01-23T00:08:31;11.37;;;4.30;;
23266;SDS011;11802;53.160;8.214;2023-01-23T00:10:58;8.80;;;4.40;;
23266;SDS011;11802;53.160;8.214;2023-01-23T00:13:24;8.47;;;4.50;;
23266;SDS011;11802;53.160;8.214;2023-01-23T00:15:49;8.43;;;4.13;;
23266;SDS011;11802;53.160;8.214;2023-01-23T00:18:16;8.07;;;3.87;;
23266;SDS011;11802;53.160;8.214;2023-01-23T00:20:41;8.13;;;4.10;;
23266;SDS011;11802;53.160;8.214;2023-01-23T00:23:07;9.97;;;4.00;;
23266;SDS011;11802;53.160;8.214;2023-01-23T00:25:34;6.43;;;3.80;;
23266;SDS011;11802;53.160;8.214;2023-01-23T00:27:59;7.63;;;3.83;;
23266;SDS011;11802;53.160;8.214;2023-01-23T00:30:25;9.50;;;4.47;;
23266;SDS011;11802;53.160;8.214;2023-01-23T00:32:51;7.77;;;3.57;;
23266;SDS011;11802;53.160;8.214;2023-01-23T00:35:16;8.80;;;3.97;;
23266;SDS011;11802;53.160;8.214;2023-01-23T00:37:42;8.47;;;3.50;;
23266;SDS011;11802;53.160;8.214;2023-01-23T00:40:08;8.30;;;3.50;;
23266;SDS011;11802;53.160;8.214;2023-01-23T00:42:34;9.57;;;3.60;;
23266;SDS011;11802;53.160;8.214;2023-01-23T00:44:59;8.80;;;3.73;;
23266;SDS011;11802;53.160;8.214;2023-01-23T00:47:25;8.27;;;3.47;;
23266;SDS011;11802;53.160;8.214;2023-01-23T00:49:50;11.17;;;3.97;;
23266;SDS011;11802;53.160;8.214;2023-01-23T00:52:18;10.93;;;4.10;;
23266;SDS011;11802;53.160;8.214;2023-01-23T00:54:43;8.17;;;3.77;;
23266;SDS011;11802;53.160;8.214;2023-01-23T00:57:09;7.73;;;3.50;;
23266;SDS011;11802;53.160;8.214;2023-01-23T00:59:35;9.43;;;4.00;;
23266;SDS011;11802;53.160;8.214;2023-01-23T01:02:00;6.37;;;3.63;;
23266;SDS011;11802;53.160;8.214;2023-01-23T01:04:26;6.13;;;3.70;;
23266;SDS011;11802;53.160;8.214;2023-01-23T01:06:52;8.67;;;3.77;;
23266;SDS011;11802;53.160;8.214;2023-01-23T01:09:17;9.07;;;3.80;;
23266;SDS011;11802;53.160;8.214;2023-01-23T01:11:43;11.13;;;3.67;;
23266;SDS011;11802;53.160;8.214;2023-01-23T01:14:08;12.27;;;3.87;;
23266;SDS011;11802;53.160;8.214;2023-01-23T01:16:34;8.50;;;4.03;;
23266;SDS011;11802;53.160;8.214;2023-01-23T01:18:59;6.90;;;4.50;;
23266;SDS011;11802;53.160;8.214;2023-01-23T01:21:25;7.73;;;3.90;;
23266;SDS011;11802;53.160;8.214;2023-01-23T01:23:51;8.43;;;3.97;;
23266;SDS011;11802;53.160;8.214;2023-01-23T01:26:17;8.53;;;3.93;;
23266;SDS011;11802;53.160;8.214;2023-01-23T01:28:42;6.27;;;3.57;;
23266;SDS011;11802;53.160;8.214;2023-01-23T01:31:09;7.87;;;3.93;;
23266;SDS011;11802;53.160;8.214;2023-01-23T01:33:37;8.30;;;4.50;;
23266;SDS011;11802;53.160;8.214;2023-01-23T01:36:07;6.73;;;3.57;;
23266;SDS011;11802;53.160;8.214;2023-01-23T01:38:34;7.67;;;3.43;;
23266;SDS011;11802;53.160;8.214;2023-01-23T01:40:59;6.47;;;3.30;;
23266;SDS011;11802;53.160;8.214;2023-01-23T01:43:26;8.30;;;3.70;;
23266;SDS011;11802;53.160;8.214;2023-01-23T01:48:37;8.30;;;3.80;;
23266;SDS011;11802;53.160;8.214;2023-01-23T01:53:45;6.77;;;3.80;;
23266;SDS011;11802;53.160;8.214;2023-01-23T01:56:14;6.53;;;3.67;;
23266;SDS011;11802;53.160;8.214;2023-01-23T01:58:43;6.57;;;3.87;;
23266;SDS011;11802;53.160;8.214;2023-01-23T02:01:11;7.70;;;3.80;;
23266;SDS011;11802;53.160;8.214;2023-01-23T02:03:37;7.43;;;4.57;;
23266;SDS011;11802;53.160;8.214;2023-01-23T02:06:03;7.83;;;3.73;;
23266;SDS011;11802;53.160;8.214;2023-01-23T02:08:34;8.57;;;4.07;;
23266;SDS011;11802;53.160;8.214;2023-01-23T02:11:09;7.90;;;3.77;;
23266;SDS011;11802;53.160;8.214;2023-01-23T02:13:35;6.07;;;3.80;;
23266;SDS011;11802;53.160;8.214;2023-01-23T02:16:10;6.20;;;3.60;;
23266;SDS011;11802;53.160;8.214;2023-01-23T02:18:38;8.33;;;3.90;;
23266;SDS011;11802;53.160;8.214;2023-01-23T02:21:08;9.70;;;4.17;;
23266;SDS011;11802;53.160;8.214;2023-01-23T02:26:31;8.53;;;3.87;;
23266;SDS011;11802;53.160;8.214;2023-01-23T02:29:01;10.00;;;4.23;;
23266;SDS011;11802;53.160;8.214;2023-01-23T02:31:28;7.70;;;4.23;;
23266;SDS011;11802;53.160;8.214;2023-01-23T02:33:54;8.70;;;4.17;;
23266;SDS011;11802;53.160;8.214;2023-01-23T02:36:25;7.90;;;4.20;;
23266;SDS011;11802;53.160;8.214;2023-01-23T02:41:29;6.97;;;4.03;;
23266;SDS011;11802;53.160;8.214;2023-01-23T02:44:00;9.67;;;4.27;;
23266;SDS011;11802;53.160;8.214;2023-01-23T02:46:28;7.23;;;3.93;;
23266;SDS011;11802;53.160;8.214;2023-01-23T02:48:54;10.87;;;4.37;;
23266;SDS011;11802;53.160;8.214;2023-01-23T02:51:19;9.33;;;4.17;;
23266;SDS011;11802;53.160;8.214;2023-01-23T02:53:46;9.77;;;3.80;;
23266;SDS011;11802;53.160;8.214;2023-01-23T02:56:12;7.43;;;3.93;;
23266;SDS011;11802;53.160;8.214;2023-01-23T02:58:38;8.17;;;4.00;;
23266;SDS011;11802;53.160;8.214;2023-01-23T03:01:23;9.73;;;4.13;;
23266;SDS011;11802;53.160;8.214;2023-01-23T03:03:50;9.87;;;4.30;;
23266;SDS011;11802;53.160;8.214;2023-01-23T03:06:17;6.33;;;4.03;;
23266;SDS011;11802;53.160;8.214;2023-01-23T03:08:43;10.23;;;4.80;;
23266;SDS011;11802;53.160;8.214;2023-01-23T03:11:12;8.40;;;4.13;;
23266;SDS011;11802;53.160;8.214;2023-01-23T03:13:39;9.20;;;4.10;;
23266;SDS011;11802;53.160;8.214;2023-01-23T03:16:04;8.80;;;4.40;;
23266;SDS011;11802;53.160;8.214;2023-01-23T03:18:30;7.43;;;4.73;;
23266;SDS011;11802;53.160;8.214;2023-01-23T03:21:06;6.50;;;4.30;;
23266;SDS011;11802;53.160;8.214;2023-01-23T03:23:32;7.47;;;4.17;;
23266;SDS011;11802;53.160;8.214;2023-01-23T03:25:59;6.77;;;4.30;;
23266;SDS011;11802;53.160;8.214;2023-01-23T03:28:25;8.13;;;4.40;;
23266;SDS011;11802;53.160;8.214;2023-01-23T03:31:10;9.97;;;4.67;;
23266;SDS011;11802;53.160;8.214;2023-01-23T03:33:37;8.07;;;4.40;;
23266;SDS011;11802;53.160;8.214;2023-01-23T03:36:04;9.03;;;4.60;;
23266;SDS011;11802;53.160;8.214;2023-01-23T03:38:32;7.23;;;3.80;;
23266;SDS011;11802;53.160;8.214;2023-01-23T03:40:57;7.60;;;4.50;;
23266;SDS011;11802;53.160;8.214;2023-01-23T03:43:41;9.50;;;4.80;;
23266;SDS011;11802;53.160;8.214;2023-01-23T03:46:07;9.43;;;4.80;;
23266;SDS011;11802;53.160;8.214;2023-01-23T03:48:33;8.03;;;4.63;;
23266;SDS011;11802;53.160;8.214;2023-01-23T03:50:58;9.97;;;4.47;;
23266;SDS011;11802;53.160;8.214;2023-01-23T03:53:24;10.73;;;4.83;;
23266;SDS011;11802;53.160;8.214;2023-01-23T03:55:49;7.13;;;4.23;;
23266;SDS011;11802;53.160;8.214;2023-01-23T03:58:15;8.40;;;4.17;;
23266;SDS011;11802;53.160;8.214;2023-01-23T04:00:41;7.17;;;4.37;;
23266;SDS011;11802;53.160;8.214;2023-01-23T04:03:06;7.63;;;4.33;;
23266;SDS011;11802;53.160;8.214;2023-01-23T04:05:32;10.50;;;4.40;;
23266;SDS011;11802;53.160;8.214;2023-01-23T04:07:58;9.97;;;4.77;;
23266;SDS011;11802;53.160;8.214;2023-01-23T04:10:25;8.80;;;4.40;;
23266;SDS011;11802;53.160;8.214;2023-01-23T04:12:51;9.07;;;4.30;;
23266;SDS011;11802;53.160;8.214;2023-01-23T04:15:16;8.53;;;4.40;;
23266;SDS011;11802;53.160;8.214;2023-01-23T04:17:42;13.90;;;4.80;;
23266;SDS011;11802;53.160;8.214;2023-01-23T04:20:07;9.07;;;4.67;;
23266;SDS011;11802;53.160;8.214;2023-01-23T04:22:34;8.07;;;4.00;;
23266;SDS011;11802;53.160;8.214;2023-01-23T04:24:59;8.73;;;4.20;;
23266;SDS011;11802;53.160;8.214;2023-01-23T04:27:25;8.07;;;4.13;;
23266;SDS011;11802;53.160;8.214;2023-01-23T04:29:51;7.23;;;4.60;;
23266;SDS011;11802;53.160;8.214;2023-01-23T04:32:17;7.80;;;4.13;;
23266;SDS011;11802;53.160;8.214;2023-01-23T04:34:42;8.10;;;3.40;;
23266;SDS011;11802;53.160;8.214;2023-01-23T04:37:08;7.97;;;4.10;;
23266;SDS011;11802;53.160;8.214;2023-01-23T04:39:33;6.63;;;3.47;;
23266;SDS011;11802;53.160;8.214;2023-01-23T04:41:59;5.73;;;3.80;;
23266;SDS011;11802;53.160;8.214;2023-01-23T04:44:24;7.50;;;3.57;;
23266;SDS011;11802;53.160;8.214;2023-01-23T04:46:51;7.60;;;3.90;;
23266;SDS011;11802;53.160;8.214;2023-01-23T04:49:18;8.67;;;4.10;;
23266;SDS011;11802;53.160;8.214;2023-01-23T04:51:45;9.13;;;4.10;;
23266;SDS011;11802;53.160;8.214;2023-01-23T04:54:12;6.17;;;4.33;;
23266;SDS011;11802;53.160;8.214;2023-01-23T04:56:38;9.13;;;4.63;;
23266;SDS011;11802;53.160;8.214;2023-01-23T04:59:04;9.37;;;4.50;;
23266;SDS011;11802;53.160;8.214;2023-01-23T05:01:30;8.33;;;4.57;;
23266;SDS011;11802;53.160;8.214;2023-01-23T05:03:55;9.00;;;5.00;;
23266;SDS011;11802;53.160;8.214;2023-01-23T05:06:21;9.47;;;5.03;;
23266;SDS011;11802;53.160;8.214;2023-01-23T05:08:46;12.90;;;5.30;;
23266;SDS011;11802;53.160;8.214;2023-01-23T05:11:12;8.23;;;4.83;;
23266;SDS011;11802;53.160;8.214;2023-01-23T05:13:37;10.17;;;5.43;;
23266;SDS011;11802;53.160;8.214;2023-01-23T05:16:03;8.60;;;4.93;;
23266;SDS011;11802;53.160;8.214;2023-01-23T05:18:29;8.60;;;4.90;;
23266;SDS011;11802;53.160;8.214;2023-01-23T05:20:55;12.23;;;5.03;;
23266;SDS011;11802;53.160;8.214;2023-01-23T05:23:20;7.43;;;5.03;;
23266;SDS011;11802;53.160;8.214;2023-01-23T05:25:46;12.13;;;5.00;;
23266;SDS011;11802;53.160;8.214;2023-01-23T05:28:12;8.67;;;4.67;;
23266;SDS011;11802;53.160;8.214;2023-01-23T05:30:37;8.90;;;4.90;;
23266;SDS011;11802;53.160;8.214;2023-01-23T05:33:03;11.53;;;5.60;;
23266;SDS011;11802;53.160;8.214;2023-01-23T05:35:28;8.43;;;5.13;;
23266;SDS011;11802;53.160;8.214;2023-01-23T05:37:54;9.83;;;4.97;;
23266;SDS011;11802;53.160;8.214;2023-01-23T05:40:20;10.63;;;5.40;;
23266;SDS011;11802;53.160;8.214;2023-01-23T05:42:46;7.47;;;4.80;;
23266;SDS011;11802;53.160;8.214;2023-01-23T05:45:12;11.77;;;5.93;;
23266;SDS011;11802;53.160;8.214;2023-01-23T05:47:38;10.77;;;4.87;;
23266;SDS011;11802;53.160;8.214;2023-01-23T05:50:04;8.83;;;5.70;;
23266;SDS011;11802;53.160;8.214;2023-01-23T05:52:32;11.33;;;5.87;;
23266;SDS011;11802;53.160;8.214;2023-01-23T05:54:58;8.43;;;5.63;;
23266;SDS011;11802;53.160;8.214;2023-01-23T05:57:23;12.97;;;6.00;;
23266;SDS011;11802;53.160;8.214;2023-01-23T05:59:49;10.60;;;5.83;;
23266;SDS011;11802;53.160;8.214;2023-01-23T06:02:14;13.27;;;5.80;;
23266;SDS011;11802;53.160;8.214;2023-01-23T06:04:40;11.30;;;6.47;;
23266;SDS011;11802;53.160;8.214;2023-01-23T06:07:07;10.53;;;6.00;;
23266;SDS011;11802;53.160;8.214;2023-01-23T06:09:37;10.57;;;6.03;;
23266;SDS011;11802;53.160;8.214;2023-01-23T06:12:02;11.33;;;6.13;;
23266;SDS011;11802;53.160;8.214;2023-01-23T06:14:28;12.20;;;6.33;;
23266;SDS011;11802;53.160;8.214;2023-01-23T06:16:54;11.23;;;6.33;;
23266;SDS011;11802;53.160;8.214;2023-01-23T06:19:19;11.27;;;6.47;;
23266;SDS011;11802;53.160;8.214;2023-01-23T06:21:46;12.20;;;6.20;;
23266;SDS011;11802;53.160;8.214;2023-01-23T06:24:11;13.07;;;6.87;;
23266;SDS011;11802;53.160;8.214;2023-01-23T06:26:37;11.70;;;6.83;;
23266;SDS011;11802;53.160;8.214;2023-01-23T06:29:02;12.13;;;6.80;;
23266;SDS011;11802;53.160;8.214;2023-01-23T06:31:28;12.13;;;7.13;;
23266;SDS011;11802;53.160;8.214;2023-01-23T06:33:56;16.47;;;7.80;;
23266;SDS011;11802;53.160;8.214;2023-01-23T06:36:22;12.60;;;6.87;;
23266;SDS011;11802;53.160;8.214;2023-01-23T06:38:48;11.50;;;7.37;;
23266;SDS011;11802;53.160;8.214;2023-01-23T06:41:13;15.00;;;7.90;;
23266;SDS011;11802;53.160;8.214;2023-01-23T06:43:39;14.17;;;8.77;;
23266;SDS011;11802;53.160;8.214;2023-01-23T06:46:06;14.47;;;7.70;;
23266;SDS011;11802;53.160;8.214;2023-01-23T06:48:33;14.60;;;7.90;;
23266;SDS011;11802;53.160;8.214;2023-01-23T06:50:59;13.80;;;8.30;;
23266;SDS011;11802;53.160;8.214;2023-01-23T06:53:25;13.23;;;7.00;;
23266;SDS011;11802;53.160;8.214;2023-01-23T06:55:51;16.13;;;8.43;;
23266;SDS011;11802;53.160;8.214;2023-01-23T06:58:17;13.07;;;8.03;;
23266;SDS011;11802;53.160;8.214;2023-01-23T07:00:43;14.57;;;7.73;;
23266;SDS011;11802;53.160;8.214;2023-01-23T07:03:09;14.60;;;8.33;;
23266;SDS011;11802;53.160;8.214;2023-01-23T07:05:41;15.20;;;8.73;;
23266;SDS011;11802;53.160;8.214;2023-01-23T07:08:07;19.47;;;9.37;;
23266;SDS011;11802;53.160;8.214;2023-01-23T07:10:34;14.93;;;9.20;;
23266;SDS011;11802;53.160;8.214;2023-01-23T07:13:02;16.73;;;9.37;;
23266;SDS011;11802;53.160;8.214;2023-01-23T07:15:28;14.90;;;8.47;;
23266;SDS011;11802;53.160;8.214;2023-01-23T07:17:54;17.93;;;8.73;;
23266;SDS011;11802;53.160;8.214;2023-01-23T07:20:19;14.37;;;9.03;;
23266;SDS011;11802;53.160;8.214;2023-01-23T07:22:45;18.17;;;9.43;;
23266;SDS011;11802;53.160;8.214;2023-01-23T07:25:10;18.67;;;9.40;;
23266;SDS011;11802;53.160;8.214;2023-01-23T07:27:36;13.87;;;8.43;;
23266;SDS011;11802;53.160;8.214;2023-01-23T07:30:01;14.07;;;8.93;;
23266;SDS011;11802;53.160;8.214;2023-01-23T07:32:27;19.77;;;11.40;;
23266;SDS011;11802;53.160;8.214;2023-01-23T07:34:53;14.63;;;8.87;;
23266;SDS011;11802;53.160;8.214;2023-01-23T07:37:18;14.63;;;8.90;;
23266;SDS011;11802;53.160;8.214;2023-01-23T07:39:44;15.00;;;9.17;;
23266;SDS011;11802;53.160;8.214;2023-01-23T07:42:09;16.57;;;9.23;;
23266;SDS011;11802;53.160;8.214;2023-01-23T07:44:35;16.30;;;10.00;;
23266;SDS011;11802;53.160;8.214;2023-01-23T07:47:01;16.23;;;9.60;;
23266;SDS011;11802;53.160;8.214;2023-01-23T07:49:27;13.97;;;8.40;;
23266;SDS011;11802;53.160;8.214;2023-01-23T07:51:53;21.17;;;9.30;;
23266;SDS011;11802;53.160;8.214;2023-01-23T07:54:18;16.67;;;10.00;;
23266;SDS011;11802;53.160;8.214;2023-01-23T07:56:44;16.10;;;9.73;;
23266;SDS011;11802;53.160;8.214;2023-01-23T07:59:12;16.33;;;9.73;;
23266;SDS011;11802;53.160;8.214;2023-01-23T08:01:37;14.23;;;8.83;;
23266;SDS011;11802;53.160;8.214;2023-01-23T08:04:03;18.10;;;10.23;;
23266;SDS011;11802;53.160;8.214;2023-01-23T08:06:30;16.50;;;9.87;;
23266;SDS011;11802;53.160;8.214;2023-01-23T08:08:55;16.50;;;10.17;;
23266;SDS011;11802;53.160;8.214;2023-01-23T08:11:21;18.40;;;9.73;;
23266;SDS011;11802;53.160;8.214;2023-01-23T08:13:48;16.10;;;9.40;;
23266;SDS011;11802;53.160;8.214;2023-01-23T08:16:14;18.83;;;10.53;;
23266;SDS011;11802;53.160;8.214;2023-01-23T08:18:40;21.40;;;11.07;;
23266;SDS011;11802;53.160;8.214;2023-01-23T08:21:05;15.57;;;9.30;;
23266;SDS011;11802;53.160;8.214;2023-01-23T08:23:32;16.73;;;10.77;;
23266;SDS011;11802;53.160;8.214;2023-01-23T08:26:00;39.03;;;11.63;;
23266;SDS011;11802;53.160;8.214;2023-01-23T08:28:28;17.53;;;10.53;;
23266;SDS011;11802;53.160;8.214;2023-01-23T08:30:54;15.47;;;10.00;;
23266;SDS011;11802;53.160;8.214;2023-01-23T08:33:20;15.10;;;9.57;;
23266;SDS011;11802;53.160;8.214;2023-01-23T08:35:50;17.37;;;10.23;;
23266;SDS011;11802;53.160;8.214;2023-01-23T08:38:20;16.50;;;9.17;;
23266;SDS011;11802;53.160;8.214;2023-01-23T08:40:46;15.83;;;10.37;;
23266;SDS011;11802;53.160;8.214;2023-01-23T08:43:13;17.47;;;10.43;;
23266;SDS011;11802;53.160;8.214;2023-01-23T08:45:40;18.23;;;10.90;;
23266;SDS011;11802;53.160;8.214;2023-01-23T08:48:07;16.63;;;9.60;;
23266;SDS011;11802;53.160;8.214;2023-01-23T08:50:33;18.03;;;10.70;;
23266;SDS011;11802;53.160;8.214;2023-01-23T08:52:59;16.63;;;10.53;;
23266;SDS011;11802;53.160;8.214;2023-01-23T08:55:25;19.50;;;10.87;;
23266;SDS011;11802;53.160;8.214;2023-01-23T08:57:52;16.67;;;10.43;;
23266;SDS011;11802;53.160;8.214;2023-01-23T09:00:18;18.93;;;10.30;;
23266;SDS011;11802;53.160;8.214;2023-01-23T09:02:44;21.13;;;11.07;;
23266;SDS011;11802;53.160;8.214;2023-01-23T09:05:09;17.40;;;11.00;;
23266;SDS011;11802;53.160;8.214;2023-01-23T09:07:35;19.90;;;11.13;;
23266;SDS011;11802;53.160;8.214;2023-01-23T09:10:02;22.80;;;11.40;;
23266;SDS011;11802;53.160;8.214;2023-01-23T09:12:29;17.07;;;10.03;;
23266;SDS011;11802;53.160;8.214;2023-01-23T09:14:56;19.60;;;10.13;;
23266;SDS011;11802;53.160;8.214;2023-01-23T09:17:22;18.87;;;11.80;;
23266;SDS011;11802;53.160;8.214;2023-01-23T09:19:48;16.97;;;10.80;;
23266;SDS011;11802;53.160;8.214;2023-01-23T09:22:14;17.70;;;10.10;;
23266;SDS011;11802;53.160;8.214;2023-01-23T09:24:40;18.07;;;10.70;;
23266;SDS011;11802;53.160;8.214;2023-01-23T09:27:06;17.90;;;11.83;;
23266;SDS011;11802;53.160;8.214;2023-01-23T09:29:32;18.57;;;11.37;;
23266;SDS011;11802;53.160;8.214;2023-01-23T09:31:57;20.80;;;10.50;;
23266;SDS011;11802;53.160;8.214;2023-01-23T09:34:23;17.30;;;10.23;;
23266;SDS011;11802;53.160;8.214;2023-01-23T09:36:48;19.87;;;10.53;;
23266;SDS011;11802;53.160;8.214;2023-01-23T09:39:14;18.00;;;11.40;;
23266;SDS011;11802;53.160;8.214;2023-01-23T09:41:40;16.73;;;11.00;;
23266;SDS011;11802;53.160;8.214;2023-01-23T09:44:13;16.73;;;10.87;;
23266;SDS011;11802;53.160;8.214;2023-01-23T09:46:54;18.00;;;11.47;;
23266;SDS011;11802;53.160;8.214;2023-01-23T09:52:12;20.27;;;11.77;;
23266;SDS011;11802;53.160;8.214;2023-01-23T09:59:51;18.03;;;11.50;;
23266;SDS011;11802;53.160;8.214;2023-01-23T10:02:23;17.97;;;10.20;;
23266;SDS011;11802;53.160;8.214;2023-01-23T10:04:50;19.80;;;11.57;;
23266;SDS011;11802;53.160;8.214;2023-01-23T10:16:23;20.63;;;10.90;;
23266;SDS011;11802;53.160;8.214;2023-01-23T10:19:14;20.67;;;10.83;;
23266;SDS011;11802;53.160;8.214;2023-01-23T10:22:04;16.07;;;10.53;;
23266;SDS011;11802;53.160;8.214;2023-01-23T10:24:43;17.67;;;10.50;;
23266;SDS011;11802;53.160;8.214;2023-01-23T10:27:23;22.00;;;10.60;;
23266;SDS011;11802;53.160;8.214;2023-01-23T10:29:56;18.90;;;11.10;;
23266;SDS011;11802;53.160;8.214;2023-01-23T10:32:51;20.37;;;11.73;;
23266;SDS011;11802;53.160;8.214;2023-01-23T10:41:26;18.73;;;11.37;;
23266;SDS011;11802;53.160;8.214;2023-01-23T10:43:53;15.40;;;10.00;;
23266;SDS011;11802;53.160;8.214;2023-01-23T10:46:20;17.47;;;10.50;;
23266;SDS011;11802;53.160;8.214;2023-01-23T10:48:52;17.20;;;10.80;;
23266;SDS011;11802;53.160;8.214;2023-01-23T10:56:46;17.70;;;11.17;;
23266;SDS011;11802;53.160;8.214;2023-01-23T10:59:58;18.73;;;10.67;;
23266;SDS011;11802;53.160;8.214;2023-01-23T11:02:33;19.80;;;11.47;;
23266;SDS011;11802;53.160;8.214;2023-01-23T11:05:01;16.80;;;10.77;;
23266;SDS011;11802;53.160;8.214;2023-01-23T11:07:52;18.13;;;10.40;;
23266;SDS011;11802;53.160;8.214;2023-01-23T11:10:22;19.03;;;10.50;;
23266;SDS011;11802;53.160;8.214;2023-01-23T11:12:52;13.93;;;9.50;;
23266;SDS011;11802;53.160;8.214;2023-01-23T11:15:30;19.60;;;10.83;;
23266;SDS011;11802;53.160;8.214;2023-01-23T11:17:57;171.97;;;26.40;;
23266;SDS011;11802;53.160;8.214;2023-01-23T11:20:37;30.27;;;10.80;;
23266;SDS011;11802;53.160;8.214;2023-01-23T11:25:42;16.00;;;9.47;;
23266;SDS011;11802;53.160;8.214;2023-01-23T11:28:20;16.20;;;10.27;;
23266;SDS011;11802;53.160;8.214;2023-01-23T11:31:10;18.03;;;10.13;;
23266;SDS011;11802;53.160;8.214;2023-01-23T11:38:45;16.17;;;9.43;;
23266;SDS011;11802;53.160;8.214;2023-01-23T11:41:16;18.63;;;10.47;;
23266;SDS011;11802;53.160;8.214;2023-01-23T11:43:41;16.50;;;10.27;;
23266;SDS011;11802;53.160;8.214;2023-01-23T11:49:04;17.03;;;10.17;;
23266;SDS011;11802;53.160;8.214;2023-01-23T12:09:11;18.90;;;9.77;;
23266;SDS011;11802;53.160;8.214;2023-01-23T12:14:20;18.53;;;9.17;;
23266;SDS011;11802;53.160;8.214;2023-01-23T12:27:42;16.63;;;9.80;;
23266;SDS011;11802;53.160;8.214;2023-01-23T12:35:30;18.63;;;10.37;;
23266;SDS011;11802;53.160;8.214;2023-01-23T12:38:19;14.10;;;9.27;;
23266;SDS011;11802;53.160;8.214;2023-01-23T12:40:51;15.60;;;10.03;;
23266;SDS011;11802;53.160;8.214;2023-01-23T12:43:34;16.27;;;10.07;;
23266;SDS011;11802;53.160;8.214;2023-01-23T12:46:25;16.40;;;9.70;;
23266;SDS011;11802;53.160;8.214;2023-01-23T12:53:06;15.57;;;9.70;;
23266;SDS011;11802;53.160;8.214;2023-01-23T12:55:18;19.17;;;9.60;;
23266;SDS011;11802;53.160;8.214;2023-01-23T12:57:47;13.63;;;9.27;;
23266;SDS011;11802;53.160;8.214;2023-01-23T13:14:22;16.13;;;10.10;;
23266;SDS011;11802;53.160;8.214;2023-01-23T13:20:19;16.30;;;9.63;;
23266;SDS011;11802;53.160;8.214;2023-01-23T13:23:23;16.23;;;9.40;;
23266;SDS011;11802;53.160;8.214;2023-01-23T13:28:47;17.40;;;10.47;;
23266;SDS011;11802;53.160;8.214;2023-01-23T13:31:26;16.47;;;10.57;;
23266;SDS011;11802;53.160;8.214;2023-01-23T13:34:33;16.90;;;10.40;;
23266;SDS011;11802;53.160;8.214;2023-01-23T13:36:53;16.60;;;10.20;;
23266;SDS011;11802;53.160;8.214;2023-01-23T13:39:39;15.40;;;9.63;;
23266;SDS011;11802;53.160;8.214;2023-01-23T13:42:31;14.17;;;9.13;;
23266;SDS011;11802;53.160;8.214;2023-01-23T13:47:57;14.50;;;10.00;;
23266;SDS011;11802;53.160;8.214;2023-01-23T13:51:22;14.60;;;9.60;;
23266;SDS011;11802;53.160;8.214;2023-01-23T13:53:48;19.33;;;9.53;;
23266;SDS011;11802;53.160;8.214;2023-01-23T13:56:36;14.27;;;8.73;;
23266;SDS011;11802;53.160;8.214;2023-01-23T14:02:22;16.77;;;9.13;;
23266;SDS011;11802;53.160;8.214;2023-01-23T14:05:12;15.63;;;9.07;;
23266;SDS011;11802;53.160;8.214;2023-01-23T14:07:44;16.00;;;9.63;;
23266;SDS011;11802;53.160;8.214;2023-01-23T14:10:12;16.37;;;9.27;;
23266;SDS011;11802;53.160;8.214;2023-01-23T14:15:38;14.57;;;9.60;;
23266;SDS011;11802;53.160;8.214;2023-01-23T14:18:26;17.90;;;9.90;;
23266;SDS011;11802;53.160;8.214;2023-01-23T14:20:59;17.13;;;9.50;;
23266;SDS011;11802;53.160;8.214;2023-01-23T14:23:30;16.07;;;8.97;;
23266;SDS011;11802;53.160;8.214;2023-01-23T14:25:59;15.80;;;9.87;;
23266;SDS011;11802;53.160;8.214;2023-01-23T14:28:25;15.80;;;9.67;;
23266;SDS011;11802;53.160;8.214;2023-01-23T14:30:59;17.13;;;9.77;;
23266;SDS011;11802;53.160;8.214;2023-01-23T14:33:27;16.47;;;9.43;;
23266;SDS011;11802;53.160;8.214;2023-01-23T14:35:53;16.60;;;9.47;;
23266;SDS011;11802;53.160;8.214;2023-01-23T14:38:27;16.83;;;9.07;;
23266;SDS011;11802;53.160;8.214;2023-01-23T14:40:55;16.93;;;10.23;;
23266;SDS011;11802;53.160;8.214;2023-01-23T14:43:22;15.67;;;9.63;;
23266;SDS011;11802;53.160;8.214;2023-01-23T14:49:01;17.33;;;10.30;;
23266;SDS011;11802;53.160;8.214;2023-01-23T14:51:29;19.07;;;10.13;;
23266;SDS011;11802;53.160;8.214;2023-01-23T14:53:55;16.47;;;10.47;;
23266;SDS011;11802;53.160;8.214;2023-01-23T14:56:40;19.43;;;11.77;;
23266;SDS011;11802;53.160;8.214;2023-01-23T14:59:14;20.03;;;11.90;;
23266;SDS011;11802;53.160;8.214;2023-01-23T15:01:57;20.10;;;11.23;;
23266;SDS011;11802;53.160;8.214;2023-01-23T15:04:25;20.17;;;10.43;;
23266;SDS011;11802;53.160;8.214;2023-01-23T15:06:54;19.23;;;11.03;;
23266;SDS011;11802;53.160;8.214;2023-01-23T15:09:40;18.50;;;10.67;;
23266;SDS011;11802;53.160;8.214;2023-01-23T15:12:16;20.37;;;10.37;;
23266;SDS011;11802;53.160;8.214;2023-01-23T15:14:42;17.00;;;10.57;;
23266;SDS011;11802;53.160;8.214;2023-01-23T15:17:12;21.17;;;11.47;;
23266;SDS011;11802;53.160;8.214;2023-01-23T15:19:41;20.27;;;11.93;;
23266;SDS011;11802;53.160;8.214;2023-01-23T15:22:15;20.87;;;12.13;;
23266;SDS011;11802;53.160;8.214;2023-01-23T15:24:43;22.93;;;12.00;;
23266;SDS011;11802;53.160;8.214;2023-01-23T15:27:22;21.87;;;11.60;;
23266;SDS011;11802;53.160;8.214;2023-01-23T15:29:48;21.13;;;12.13;;
23266;SDS011;11802;53.160;8.214;2023-01-23T15:32:15;19.20;;;12.20;;
23266;SDS011;11802;53.160;8.214;2023-01-23T15:34:54;19.63;;;12.30;;
23266;SDS011;11802;53.160;8.214;2023-01-23T15:37:25;21.83;;;12.30;;
23266;SDS011;11802;53.160;8.214;2023-01-23T15:42:24;19.47;;;11.30;;
23266;SDS011;11802;53.160;8.214;2023-01-23T15:44:51;16.47;;;11.57;;
23266;SDS011;11802;53.160;8.214;2023-01-23T15:47:17;16.83;;;11.13;;
23266;SDS011;11802;53.160;8.214;2023-01-23T15:49:42;15.57;;;10.60;;
23266;SDS011;11802;53.160;8.214;2023-01-23T15:52:19;23.03;;;11.77;;
23266;SDS011;11802;53.160;8.214;2023-01-23T15:54:50;17.80;;;11.00;;
23266;SDS011;11802;53.160;8.214;2023-01-23T15:57:18;18.20;;;10.70;;
23266;SDS011;11802;53.160;8.214;2023-01-23T15:59:44;18.10;;;11.40;;
23266;SDS011;11802;53.160;8.214;2023-01-23T16:02:14;17.70;;;10.27;;
23266;SDS011;11802;53.160;8.214;2023-01-23T16:04:41;19.93;;;11.23;;
23266;SDS011;11802;53.160;8.214;2023-01-23T16:07:10;21.20;;;11.03;;
23266;SDS011;11802;53.160;8.214;2023-01-23T16:09:49;20.67;;;11.87;;
23266;SDS011;11802;53.160;8.214;2023-01-23T16:12:17;22.37;;;11.67;;
23266;SDS011;11802;53.160;8.214;2023-01-23T16:14:45;19.87;;;11.07;;
23266;SDS011;11802;53.160;8.214;2023-01-23T16:17:11;17.00;;;10.80;;
23266;SDS011;11802;53.160;8.214;2023-01-23T16:19:37;21.23;;;11.00;;
23266;SDS011;11802;53.160;8.214;2023-01-23T16:22:02;16.03;;;11.17;;
23266;SDS011;11802;53.160;8.214;2023-01-23T16:24:28;17.93;;;10.87;;
23266;SDS011;11802;53.160;8.214;2023-01-23T16:27:00;18.40;;;11.27;;
23266;SDS011;11802;53.160;8.214;2023-01-23T16:29:30;19.20;;;11.13;;
23266;SDS011;11802;53.160;8.214;2023-01-23T16:31:57;18.03;;;10.70;;
23266;SDS011;11802;53.160;8.214;2023-01-23T16:34:24;18.13;;;11.10;;
23266;SDS011;11802;53.160;8.214;2023-01-23T16:36:52;19.83;;;10.90;;
23266;SDS011;11802;53.160;8.214;2023-01-23T16:39:20;18.90;;;11.27;;
23266;SDS011;11802;53.160;8.214;2023-01-23T16:41:48;18.57;;;11.70;;
23266;SDS011;11802;53.160;8.214;2023-01-23T16:44:15;16.93;;;10.40;;
23266;SDS011;11802;53.160;8.214;2023-01-23T16:46:43;15.87;;;10.00;;
23266;SDS011;11802;53.160;8.214;2023-01-23T16:49:09;18.40;;;10.47;;